This is the latest recevied weather packets stored in our database for station/object W3JBS-2. If no packets are shown the sender has not sent any weather packets the latest 10 day(s).
| Time | Temp. | Humidity | Pressure | Rain* | Wind** | Luminosity | Snow |
|---|---|---|---|---|---|---|---|
| 1777889220 | 6.11° C | 75% | 1014.8 hPa | 0 mm | - | - | - |
| 1777888320 | 6.11° C | 73% | 1014.7 hPa | 0 mm | - | - | - |
| 1777887420 | 6.67° C | 71% | 1014.7 hPa | 0 mm | - | - | - |
| 1777886519 | 7.22° C | 68% | 1014.7 hPa | 0 mm | - | - | - |
| 1777885619 | 7.22° C | 68% | 1014.7 hPa | 0 mm | - | - | - |
| 1777884719 | 7.22° C | 68% | 1014.8 hPa | 0 mm | - | - | - |
| 1777883820 | 7.22° C | 69% | 1014.6 hPa | 0 mm | - | - | - |
| 1777882920 | 7.22° C | 69% | 1014.5 hPa | 0 mm | - | - | - |
| 1777882020 | 7.22° C | 68% | 1014.5 hPa | 0 mm | - | - | - |
| 1777881120 | 7.22° C | 66% | 1014.5 hPa | 0 mm | - | - | - |
| 1777880219 | 7.22° C | 64% | 1014.5 hPa | 0 mm | - | - | - |
| 1777879319 | 7.22° C | 62% | 1014.5 hPa | 0 mm | - | - | - |
| 1777878420 | 7.22° C | 60% | 1014.4 hPa | 0 mm | - | - | - |
| 1777877520 | 7.78° C | 58% | 1014.4 hPa | 0 mm | - | - | - |
| 1777876620 | 7.22° C | 59% | 1014.4 hPa | 0 mm | - | - | - |
| 1777875719 | 6.67° C | 61% | 1014.4 hPa | 0 mm | - | - | - |
| 1777874819 | 6.67° C | 60% | 1014.5 hPa | 0 mm | - | - | - |
| 1777873919 | 6.67° C | 60% | 1014.5 hPa | 0 mm | - | - | - |
| 1777873020 | 7.22° C | 58% | 1014.5 hPa | 0 mm | - | - | - |
| 1777872120 | 7.78° C | 56% | 1014.7 hPa | 0 mm | - | - | - |
| 1777871220 | 7.78° C | 56% | 1014.5 hPa | 0 mm | - | - | - |
| 1777870319 | 8.33° C | 54% | 1014.5 hPa | 0 mm | - | - | - |
| 1777869419 | 8.33° C | 54% | 1014.5 hPa | 0 mm | - | - | - |
| 1777868519 | 8.33° C | 55% | 1014.3 hPa | 0 mm | - | - | - |
| 1777867620 | 8.33° C | 56% | 1014.2 hPa | 0 mm | - | - | - |
* Rain latest hour (hover to see other rain measurements)
** Current wind speed in m/s (hover to see current wind gust speed)